Time;durP1;ratioP1;P1;durP2;ratioP2;P2;SDS_P1;SDS_P2;PMS_P1;PMS_P2;Temp;Humidity;BMP_temperature;BMP_pressure;BME280_temperature;BME280_humidity;BME280_pressure;Samples;Min_cycle;Max_cycle;Signal;HPM_P1;HPM_P2
2023/09/27 00:02:22;;;;;;;1.38;1.27;;;;;;;;;;5003818;28;57973;-76
2023/09/27 00:04:48;;;;;;;0.97;0.90;;;;;;;;;;5002701;28;58129;-76
2023/09/27 00:07:13;;;;;;;1.42;1.33;;;;;;;;;;5006453;28;58585;-76
2023/09/27 00:09:38;;;;;;;1.40;1.30;;;;;;;;;;5005469;28;58319;-75
2023/09/27 00:12:05;;;;;;;1.37;1.27;;;;;;;;;;5005531;28;58215;-75
2023/09/27 00:14:31;;;;;;;1.25;1.25;;;;;;;;;;5004066;28;58253;-76
2023/09/27 00:16:56;;;;;;;1.02;0.93;;;;;;;;;;5006610;28;57876;-76
2023/09/27 00:19:22;;;;;;;0.73;0.73;;;;;;;;;;5007130;28;58884;-76
2023/09/27 00:21:47;;;;;;;1.13;1.02;;;;;;;;;;5005742;28;59959;-76
2023/09/27 00:24:12;;;;;;;0.80;0.80;;;;;;;;;;5007325;28;58136;-77
2023/09/27 00:26:37;;;;;;;1.00;1.00;;;;;;;;;;5004706;28;58554;-76
2023/09/27 00:29:02;;;;;;;1.83;1.60;;;;;;;;;;5005635;28;58683;-76
2023/09/27 00:31:27;;;;;;;0.80;0.80;;;;;;;;;;5006278;28;57909;-71
2023/09/27 00:33:53;;;;;;;1.00;0.90;;;;;;;;;;5004546;28;59933;-72
2023/09/27 00:36:18;;;;;;;0.90;0.90;;;;;;;;;;5006103;28;57850;-70
2023/09/27 00:38:43;;;;;;;1.03;0.97;;;;;;;;;;5004824;28;59941;-71
2023/09/27 00:41:08;;;;;;;0.87;0.87;;;;;;;;;;5002251;28;58929;-72
2023/09/27 00:43:33;;;;;;;1.03;1.03;;;;;;;;;;5003407;28;57914;-71
2023/09/27 00:46:05;;;;;;;1.02;0.93;;;;;;;;;;5004972;28;58831;-71
2023/09/27 00:48:31;;;;;;;1.05;1.05;;;;;;;;;;5004498;28;59244;-72
2023/09/27 00:50:57;;;;;;;1.00;1.00;;;;;;;;;;5004057;28;58176;-72
2023/09/27 00:53:22;;;;;;;1.00;0.98;;;;;;;;;;5002152;28;59681;-71
2023/09/27 00:55:48;;;;;;;0.90;0.90;;;;;;;;;;5003327;28;57760;-74
2023/09/27 00:58:16;;;;;;;1.35;1.25;;;;;;;;;;5004801;28;58698;-71
2023/09/27 01:00:42;;;;;;;1.00;0.90;;;;;;;;;;5004018;28;59047;-72
2023/09/27 01:03:07;;;;;;;1.60;1.00;;;;;;;;;;5002584;28;58036;-71
2023/09/27 01:05:32;;;;;;;1.23;1.08;;;;;;;;;;5002529;28;58942;-71
2023/09/27 01:07:58;;;;;;;0.80;0.80;;;;;;;;;;5002345;28;59969;-71
2023/09/27 01:10:23;;;;;;;0.90;0.90;;;;;;;;;;5003184;28;58072;-72
2023/09/27 01:12:48;;;;;;;1.07;1.00;;;;;;;;;;5005481;28;58370;-71
2023/09/27 01:15:13;;;;;;;1.10;1.00;;;;;;;;;;5006137;28;59220;-71
2023/09/27 01:17:51;;;;;;;1.27;1.20;;;;;;;;;;5007023;28;58035;-71
2023/09/27 01:20:17;;;;;;;1.00;1.00;;;;;;;;;;5003549;28;58742;-72
2023/09/27 01:22:42;;;;;;;1.07;0.97;;;;;;;;;;5002827;28;57878;-71
2023/09/27 01:25:10;;;;;;;0.93;0.93;;;;;;;;;;5005749;28;59527;-71
2023/09/27 01:27:36;;;;;;;;;;;;;;;;;;5003709;28;60039;-71
2023/09/27 01:30:01;;;;;;;1.20;1.10;;;;;;;;;;5001491;28;58081;-71
2023/09/27 01:32:26;;;;;;;1.10;1.00;;;;;;;;;;5004804;28;58619;-71
2023/09/27 01:34:52;;;;;;;1.03;1.00;;;;;;;;;;5006620;28;57926;-71
2023/09/27 01:37:17;;;;;;;1.63;1.30;;;;;;;;;;5002877;28;58541;-72
2023/09/27 01:39:42;;;;;;;0.80;0.80;;;;;;;;;;5005816;28;58047;-71
2023/09/27 01:42:08;;;;;;;1.25;1.15;;;;;;;;;;5003850;28;58114;-76
2023/09/27 01:44:33;;;;;;;0.95;0.90;;;;;;;;;;5002037;28;59566;-76
2023/09/27 01:46:58;;;;;;;1.00;1.00;;;;;;;;;;5004255;28;57938;-76
2023/09/27 01:49:24;;;;;;;0.90;0.90;;;;;;;;;;5005163;28;58117;-75
2023/09/27 01:51:49;;;;;;;1.02;1.00;;;;;;;;;;5003728;28;58937;-76
2023/09/27 01:54:14;;;;;;;1.13;1.13;;;;;;;;;;5001326;28;57968;-75
2023/09/27 01:56:40;;;;;;;0.82;0.82;;;;;;;;;;5005142;28;58055;-75
2023/09/27 01:59:05;;;;;;;0.90;0.90;;;;;;;;;;5002609;28;58434;-75
2023/09/27 02:01:30;;;;;;;1.00;1.00;;;;;;;;;;5002983;28;57927;-76
2023/09/27 02:03:55;;;;;;;0.90;0.90;;;;;;;;;;5005183;28;58917;-76
2023/09/27 02:06:22;;;;;;;0.87;0.87;;;;;;;;;;5004341;28;58160;-76
2023/09/27 02:08:47;;;;;;;0.80;0.80;;;;;;;;;;5004095;28;58212;-74
2023/09/27 02:11:13;;;;;;;1.08;1.08;;;;;;;;;;5005181;28;58846;-75
2023/09/27 02:13:38;;;;;;;1.08;1.02;;;;;;;;;;5000602;28;58787;-75
2023/09/27 02:16:03;;;;;;;0.90;0.90;;;;;;;;;;5004451;28;58192;-75
2023/09/27 02:18:28;;;;;;;0.73;0.73;;;;;;;;;;5003844;28;60204;-76
2023/09/27 02:20:53;;;;;;;0.80;0.80;;;;;;;;;;5004729;28;57989;-75
2023/09/27 02:23:18;;;;;;;1.00;0.90;;;;;;;;;;5003933;28;59503;-75
2023/09/27 02:25:44;;;;;;;0.80;0.80;;;;;;;;;;5004267;28;58788;-75
2023/09/27 02:28:10;;;;;;;1.23;0.93;;;;;;;;;;5003920;28;58132;-75
2023/09/27 02:30:35;;;;;;;0.98;0.88;;;;;;;;;;5003895;28;57892;-75
2023/09/27 02:33:00;;;;;;;1.30;1.20;;;;;;;;;;5004315;28;58235;-75
2023/09/27 02:35:25;;;;;;;1.23;1.13;;;;;;;;;;5004043;28;58030;-75
2023/09/27 02:37:51;;;;;;;1.50;0.93;;;;;;;;;;5005576;28;58089;-74
2023/09/27 02:40:17;;;;;;;1.50;1.40;;;;;;;;;;5005003;28;59017;-74
2023/09/27 02:42:43;;;;;;;0.70;0.70;;;;;;;;;;5005355;28;58692;-75
2023/09/27 02:45:09;;;;;;;0.90;0.90;;;;;;;;;;4999102;28;58973;-75
2023/09/27 02:47:34;;;;;;;0.90;0.90;;;;;;;;;;5002787;28;58134;-74
2023/09/27 02:49:59;;;;;;;0.75;0.75;;;;;;;;;;5005238;28;58318;-75
2023/09/27 02:52:25;;;;;;;1.07;1.07;;;;;;;;;;5001272;28;59198;-74
2023/09/27 02:54:50;;;;;;;1.00;1.00;;;;;;;;;;5002702;28;57842;-75
2023/09/27 02:57:16;;;;;;;1.88;1.33;;;;;;;;;;5003096;28;58767;-74
2023/09/27 02:59:41;;;;;;;1.37;0.90;;;;;;;;;;5004657;28;59980;-75
2023/09/27 03:02:06;;;;;;;0.60;0.60;;;;;;;;;;5002458;28;58091;-75
2023/09/27 03:04:31;;;;;;;0.60;0.60;;;;;;;;;;5002044;28;60828;-74
2023/09/27 03:06:56;;;;;;;1.10;1.00;;;;;;;;;;5004045;28;58192;-74
2023/09/27 03:09:22;;;;;;;0.73;0.73;;;;;;;;;;5002484;28;58633;-75
2023/09/27 03:11:47;;;;;;;0.70;0.70;;;;;;;;;;5001042;28;60049;-75
2023/09/27 03:14:12;;;;;;;0.93;0.93;;;;;;;;;;5001867;28;57977;-75
2023/09/27 03:16:39;;;;;;;1.03;1.00;;;;;;;;;;5002783;28;58839;-75
2023/09/27 03:19:04;;;;;;;0.95;0.95;;;;;;;;;;5000975;28;58117;-75
2023/09/27 03:21:29;;;;;;;1.03;0.93;;;;;;;;;;5002605;28;58294;-75
2023/09/27 03:23:55;;;;;;;1.07;1.07;;;;;;;;;;5000807;28;60335;-75
2023/09/27 03:26:21;;;;;;;0.90;0.90;;;;;;;;;;5001300;28;58238;-75
2023/09/27 03:28:47;;;;;;;1.05;0.95;;;;;;;;;;5000515;28;58767;-74
2023/09/27 03:31:12;;;;;;;1.23;1.13;;;;;;;;;;4995862;28;59022;-75
2023/09/27 03:33:37;;;;;;;1.33;1.23;;;;;;;;;;5005687;28;57819;-75
2023/09/27 03:36:03;;;;;;;1.40;1.30;;;;;;;;;;5008387;28;57908;-75
2023/09/27 03:38:28;;;;;;;1.25;1.15;;;;;;;;;;5004786;28;58906;-74
2023/09/27 03:40:53;;;;;;;1.10;1.10;;;;;;;;;;5002246;28;57949;-75
2023/09/27 03:43:19;;;;;;;1.27;1.20;;;;;;;;;;5002157;28;57796;-75
2023/09/27 03:45:44;;;;;;;1.50;1.40;;;;;;;;;;5008537;28;57896;-75
2023/09/27 03:48:10;;;;;;;0.75;0.75;;;;;;;;;;5005409;28;57881;-75
2023/09/27 03:50:35;;;;;;;0.93;0.93;;;;;;;;;;5005391;28;58762;-75
2023/09/27 03:53:00;;;;;;;2.40;0.87;;;;;;;;;;5006130;28;58073;-75
2023/09/27 03:55:25;;;;;;;1.20;1.10;;;;;;;;;;5005805;28;57917;-75
2023/09/27 03:57:51;;;;;;;0.93;0.93;;;;;;;;;;5002254;28;58344;-75
2023/09/27 04:00:17;;;;;;;0.90;0.90;;;;;;;;;;5004860;28;58204;-75
2023/09/27 04:02:43;;;;;;;1.05;0.95;;;;;;;;;;5003067;28;58090;-75
2023/09/27 04:05:09;;;;;;;1.05;1.02;;;;;;;;;;5001677;28;58024;-75
2023/09/27 04:07:34;;;;;;;0.85;0.85;;;;;;;;;;5003546;28;57911;-76
2023/09/27 04:10:00;;;;;;;1.17;1.08;;;;;;;;;;4999769;28;58089;-75
2023/09/27 04:12:25;;;;;;;1.15;1.08;;;;;;;;;;5002703;28;58066;-71
2023/09/27 04:14:50;;;;;;;1.23;0.90;;;;;;;;;;5002035;28;58094;-70
2023/09/27 04:17:15;;;;;;;1.00;1.00;;;;;;;;;;5002024;28;58490;-71
2023/09/27 04:19:40;;;;;;;1.07;1.07;;;;;;;;;;5003281;28;57888;-70
2023/09/27 04:22:06;;;;;;;0.70;0.70;;;;;;;;;;5001440;28;57779;-70
2023/09/27 04:24:31;;;;;;;3.05;1.55;;;;;;;;;;5000955;28;61111;-73
2023/09/27 04:26:56;;;;;;;1.83;1.73;;;;;;;;;;5006629;28;57842;-71
2023/09/27 04:29:22;;;;;;;1.50;1.33;;;;;;;;;;5003260;28;58149;-72
2023/09/27 04:31:47;;;;;;;1.40;1.30;;;;;;;;;;5007760;28;57914;-72
2023/09/27 04:34:12;;;;;;;3.80;2.00;;;;;;;;;;5003687;28;60331;-72
2023/09/27 04:36:37;;;;;;;2.93;1.97;;;;;;;;;;5005373;28;57995;-72
2023/09/27 04:39:07;;;;;;;2.63;1.47;;;;;;;;;;5005136;28;57921;-71
2023/09/27 04:41:32;;;;;;;2.00;1.50;;;;;;;;;;5004896;28;58755;-72
2023/09/27 04:43:57;;;;;;;1.43;1.33;;;;;;;;;;5002706;28;58378;-72
2023/09/27 04:46:22;;;;;;;1.42;1.33;;;;;;;;;;5003419;28;58184;-72
2023/09/27 04:48:47;;;;;;;2.13;1.50;;;;;;;;;;5006348;28;57853;-71
2023/09/27 04:51:13;;;;;;;1.30;1.20;;;;;;;;;;5004691;28;57951;-73
2023/09/27 04:53:38;;;;;;;1.13;1.13;;;;;;;;;;5004858;28;58198;-72
2023/09/27 04:56:04;;;;;;;3.17;1.17;;;;;;;;;;5005111;28;58711;-71
2023/09/27 04:58:29;;;;;;;1.70;1.60;;;;;;;;;;5001122;28;57937;-72
2023/09/27 05:00:54;;;;;;;1.57;1.40;;;;;;;;;;5005163;28;58038;-72
2023/09/27 05:03:20;;;;;;;1.60;1.33;;;;;;;;;;5002369;28;58984;-71
2023/09/27 05:05:45;;;;;;;1.40;1.30;;;;;;;;;;5004806;28;58014;-72
2023/09/27 05:08:10;;;;;;;1.40;1.40;;;;;;;;;;5004083;28;57816;-72
2023/09/27 05:10:36;;;;;;;1.53;1.43;;;;;;;;;;5005016;28;59230;-71
2023/09/27 05:13:01;;;;;;;1.40;1.30;;;;;;;;;;5003921;28;58836;-72
2023/09/27 05:15:27;;;;;;;1.33;1.23;;;;;;;;;;5004072;28;58049;-72
2023/09/27 05:17:52;;;;;;;1.10;1.10;;;;;;;;;;5005552;28;58147;-71
2023/09/27 05:20:18;;;;;;;1.40;1.30;;;;;;;;;;5003105;28;59178;-72
2023/09/27 05:22:43;;;;;;;1.55;1.45;;;;;;;;;;5003664;28;59147;-71
2023/09/27 05:25:08;;;;;;;1.40;1.30;;;;;;;;;;5004809;28;57814;-71
2023/09/27 05:27:34;;;;;;;1.50;1.40;;;;;;;;;;5004696;28;58147;-72
2023/09/27 05:29:59;;;;;;;1.40;1.00;;;;;;;;;;5004562;28;58074;-71
2023/09/27 05:32:25;;;;;;;1.38;1.25;;;;;;;;;;5019824;28;57894;-71
2023/09/27 05:34:51;;;;;;;1.30;1.20;;;;;;;;;;5003776;28;59060;-72
2023/09/27 05:37:16;;;;;;;1.63;1.52;;;;;;;;;;5003564;28;57842;-71
2023/09/27 05:39:41;;;;;;;1.20;1.20;;;;;;;;;;5005960;28;57892;-71
2023/09/27 05:42:06;;;;;;;1.43;1.33;;;;;;;;;;5004436;28;59566;-71
2023/09/27 05:44:31;;;;;;;1.50;1.40;;;;;;;;;;5004843;28;57904;-71
2023/09/27 05:46:57;;;;;;;1.40;1.10;;;;;;;;;;5005260;28;58800;-72
2023/09/27 05:49:22;;;;;;;1.55;1.45;;;;;;;;;;5004415;28;58226;-71
2023/09/27 05:51:47;;;;;;;1.67;1.30;;;;;;;;;;5005892;28;58096;-72
2023/09/27 05:54:12;;;;;;;1.40;1.30;;;;;;;;;;5003534;28;58583;-71
2023/09/27 05:56:37;;;;;;;1.40;1.30;;;;;;;;;;5006114;28;58033;-71
2023/09/27 05:59:04;;;;;;;1.00;1.00;;;;;;;;;;5005091;28;58007;-73
2023/09/27 06:01:31;;;;;;;1.33;1.23;;;;;;;;;;5004029;28;58088;-71
2023/09/27 06:03:56;;;;;;;1.08;1.02;;;;;;;;;;5003999;28;58075;-71
2023/09/27 06:06:22;;;;;;;1.60;1.50;;;;;;;;;;5003662;28;58603;-71
2023/09/27 06:08:47;;;;;;;1.90;1.30;;;;;;;;;;5004742;28;57822;-71
2023/09/27 06:11:12;;;;;;;1.27;1.13;;;;;;;;;;5002953;28;57903;-71
2023/09/27 06:13:37;;;;;;;1.30;1.20;;;;;;;;;;5017949;28;59270;-72
2023/09/27 06:16:03;;;;;;;1.27;1.17;;;;;;;;;;5002904;28;57968;-71
2023/09/27 06:18:28;;;;;;;0.93;0.93;;;;;;;;;;5004559;28;58608;-71
2023/09/27 06:20:53;;;;;;;1.40;1.30;;;;;;;;;;5001885;28;59018;-71
2023/09/27 06:23:19;;;;;;;1.10;1.00;;;;;;;;;;5003808;28;57918;-72
2023/09/27 06:25:46;;;;;;;1.35;1.27;;;;;;;;;;5001926;28;58197;-71
2023/09/27 06:28:13;;;;;;;1.10;1.02;;;;;;;;;;5002840;28;58091;-71
2023/09/27 06:30:39;;;;;;;1.50;1.40;;;;;;;;;;5003692;28;58206;-71
2023/09/27 06:33:04;;;;;;;1.83;1.73;;;;;;;;;;5004220;28;57790;-74
2023/09/27 06:35:31;;;;;;;1.50;1.40;;;;;;;;;;5003231;28;58143;-74
2023/09/27 06:38:00;;;;;;;1.63;1.53;;;;;;;;;;5004042;28;57917;-74
2023/09/27 06:40:25;;;;;;;1.40;1.30;;;;;;;;;;5001221;28;59217;-74
2023/09/27 06:42:50;;;;;;;1.53;1.43;;;;;;;;;;5004242;28;57986;-74
2023/09/27 06:45:16;;;;;;;1.53;1.43;;;;;;;;;;5003728;28;58120;-74
2023/09/27 06:47:44;;;;;;;1.52;1.42;;;;;;;;;;5002287;28;60909;-74
2023/09/27 06:50:09;;;;;;;1.80;1.70;;;;;;;;;;5004535;28;57830;-75
2023/09/27 06:52:37;;;;;;;1.95;1.85;;;;;;;;;;5002537;28;59561;-74
2023/09/27 06:55:03;;;;;;;2.13;1.77;;;;;;;;;;5000890;28;58893;-75
2023/09/27 06:57:28;;;;;;;1.77;1.67;;;;;;;;;;5003273;28;57959;-75
2023/09/27 06:59:53;;;;;;;1.80;1.70;;;;;;;;;;5001238;28;58204;-75
2023/09/27 07:02:18;;;;;;;1.83;1.73;;;;;;;;;;5005346;28;58129;-75
2023/09/27 07:04:43;;;;;;;2.00;1.85;;;;;;;;;;5003262;28;58082;-75
2023/09/27 07:07:09;;;;;;;1.77;1.67;;;;;;;;;;5002658;28;58909;-74
2023/09/27 07:09:34;;;;;;;2.58;2.38;;;;;;;;;;4999730;28;57833;-74
2023/09/27 07:11:59;;;;;;;1.75;1.65;;;;;;;;;;5002131;28;57910;-74
2023/09/27 07:14:24;;;;;;;2.40;2.20;;;;;;;;;;5002493;28;59093;-74
2023/09/27 07:16:50;;;;;;;1.85;1.75;;;;;;;;;;5004923;28;57884;-74
2023/09/27 07:19:17;;;;;;;2.30;2.08;;;;;;;;;;5001345;28;57924;-74
2023/09/27 07:21:42;;;;;;;2.23;2.10;;;;;;;;;;5003023;28;58093;-74
2023/09/27 07:24:10;;;;;;;1.47;1.37;;;;;;;;;;5000748;28;58562;-74
2023/09/27 07:26:36;;;;;;;2.05;1.95;;;;;;;;;;5001720;28;59248;-74
2023/09/27 07:29:01;;;;;;;2.00;1.90;;;;;;;;;;5003793;28;58124;-74
2023/09/27 07:31:26;;;;;;;2.27;2.10;;;;;;;;;;5004008;28;57997;-74
2023/09/27 07:33:55;;;;;;;1.80;1.70;;;;;;;;;;5002271;28;59215;-75
2023/09/27 07:36:22;;;;;;;2.25;2.05;;;;;;;;;;5003351;28;57689;-74
2023/09/27 07:38:47;;;;;;;2.15;2.05;;;;;;;;;;5003420;28;60002;-75
2023/09/27 07:41:14;;;;;;;2.30;2.20;;;;;;;;;;5003630;28;58124;-74
2023/09/27 07:43:39;;;;;;;2.08;1.98;;;;;;;;;;5002418;28;58888;-74
2023/09/27 07:46:06;;;;;;;2.40;2.20;;;;;;;;;;5001649;28;60483;-74
2023/09/27 07:48:32;;;;;;;2.20;2.00;;;;;;;;;;5000602;28;58138;-74
2023/09/27 07:50:58;;;;;;;1.77;1.67;;;;;;;;;;5003967;28;58392;-75
2023/09/27 07:53:24;;;;;;;1.42;1.38;;;;;;;;;;5002992;28;59082;-74
2023/09/27 07:55:51;;;;;;;2.20;2.00;;;;;;;;;;5003946;28;57837;-74
2023/09/27 07:58:16;;;;;;;2.03;1.92;;;;;;;;;;5002450;28;60883;-75
2023/09/27 08:00:41;;;;;;;2.10;2.00;;;;;;;;;;5003265;28;58731;-74
2023/09/27 08:03:08;;;;;;;1.77;1.67;;;;;;;;;;5002531;28;58964;-74
2023/09/27 08:05:42;;;;;;;2.35;2.15;;;;;;;;;;5002146;28;59757;-74
2023/09/27 08:08:07;;;;;;;2.38;2.17;;;;;;;;;;5002775;28;58025;-74
2023/09/27 08:10:34;;;;;;;2.20;2.10;;;;;;;;;;5001755;28;58630;-75
2023/09/27 08:12:59;;;;;;;2.10;2.00;;;;;;;;;;5001892;28;58401;-75
2023/09/27 08:15:24;;;;;;;2.60;2.40;;;;;;;;;;5002838;28;58148;-74
2023/09/27 08:17:49;;;;;;;2.60;2.40;;;;;;;;;;5005201;28;58546;-74
2023/09/27 08:20:15;;;;;;;2.70;2.50;;;;;;;;;;5006450;28;58388;-74
2023/09/27 08:22:40;;;;;;;2.70;2.50;;;;;;;;;;5007081;28;58167;-75
2023/09/27 08:25:14;;;;;;;2.10;1.93;;;;;;;;;;5003894;28;59180;-75
2023/09/27 08:27:39;;;;;;;2.65;2.45;;;;;;;;;;5004433;28;58811;-74
2023/09/27 08:30:05;;;;;;;2.60;2.40;;;;;;;;;;5003322;28;61187;-74
2023/09/27 08:32:31;;;;;;;2.10;2.00;;;;;;;;;;5005044;28;59223;-74
2023/09/27 08:34:56;;;;;;;2.00;1.90;;;;;;;;;;5007108;28;58057;-74
2023/09/27 08:37:21;;;;;;;2.13;1.93;;;;;;;;;;5005545;28;57905;-74
2023/09/27 08:39:46;;;;;;;1.83;1.73;;;;;;;;;;5005856;28;58498;-74
2023/09/27 08:42:12;;;;;;;1.97;1.87;;;;;;;;;;5005708;28;57826;-74
2023/09/27 08:44:37;;;;;;;2.47;2.28;;;;;;;;;;5005632;28;58581;-74
2023/09/27 08:47:03;;;;;;;1.97;1.87;;;;;;;;;;5003564;28;57940;-74
2023/09/27 08:49:28;;;;;;;2.08;1.98;;;;;;;;;;5005269;28;58617;-74
2023/09/27 08:51:53;;;;;;;2.20;2.10;;;;;;;;;;5002788;28;59018;-74
2023/09/27 08:54:21;;;;;;;2.10;2.00;;;;;;;;;;5004738;28;57835;-74
2023/09/27 08:56:46;;;;;;;;;;;;;;;;;;5003970;28;58482;-74
2023/09/27 08:59:12;;;;;;;2.08;1.88;;;;;;;;;;5007044;28;59039;-75
2023/09/27 09:01:38;;;;;;;2.00;1.83;;;;;;;;;;5004881;28;58106;-72
2023/09/27 09:04:04;;;;;;;2.65;2.45;;;;;;;;;;5006539;28;59913;-72
2023/09/27 09:06:29;;;;;;;1.90;1.80;;;;;;;;;;5003494;28;59925;-71
2023/09/27 09:08:55;;;;;;;2.63;2.42;;;;;;;;;;5005119;28;59731;-71
2023/09/27 09:11:22;;;;;;;1.70;1.60;;;;;;;;;;5003007;28;57850;-72
2023/09/27 09:13:53;;;;;;;1.80;1.70;;;;;;;;;;5004496;28;58079;-72
2023/09/27 09:16:23;;;;;;;2.10;2.00;;;;;;;;;;5003858;28;57848;-71
2023/09/27 09:18:48;;;;;;;1.50;1.40;;;;;;;;;;5004577;28;59430;-71
2023/09/27 09:21:18;;;;;;;1.97;1.87;;;;;;;;;;5004542;28;58128;-71
2023/09/27 09:23:47;;;;;;;1.83;1.73;;;;;;;;;;5003823;28;58998;-71
2023/09/27 09:26:12;;;;;;;1.95;1.77;;;;;;;;;;5005137;28;59354;-72
2023/09/27 09:28:56;;;;;;;2.00;1.90;;;;;;;;;;5004824;28;58213;-72
2023/09/27 09:31:25;;;;;;;2.10;1.90;;;;;;;;;;5004196;28;59081;-71
2023/09/27 09:34:06;;;;;;;1.83;1.73;;;;;;;;;;5003888;28;58212;-71
2023/09/27 09:36:31;;;;;;;2.05;1.95;;;;;;;;;;5003180;28;57827;-72
2023/09/27 09:39:05;;;;;;;1.60;1.50;;;;;;;;;;5004554;28;58111;-72
2023/09/27 09:41:49;;;;;;;2.03;1.83;;;;;;;;;;5003635;28;58108;-71
2023/09/27 09:44:18;;;;;;;2.40;2.20;;;;;;;;;;5004826;28;58814;-71
2023/09/27 09:46:44;;;;;;;2.55;2.35;;;;;;;;;;5002472;28;63499;-71
2023/09/27 09:49:10;;;;;;;1.80;1.70;;;;;;;;;;5004914;28;57831;-72
2023/09/27 09:51:37;;;;;;;2.03;1.83;;;;;;;;;;5003922;28;58113;-72
2023/09/27 09:54:05;;;;;;;2.00;1.90;;;;;;;;;;5003403;28;57906;-72
2023/09/27 09:56:31;;;;;;;1.73;1.63;;;;;;;;;;5003302;28;58825;-71
2023/09/27 09:59:07;;;;;;;1.65;1.55;;;;;;;;;;5002385;28;60841;-71
2023/09/27 10:01:37;;;;;;;1.83;1.73;;;;;;;;;;5004421;28;58136;-71
2023/09/27 10:04:04;;;;;;;1.63;1.50;;;;;;;;;;5004903;28;58617;-71
2023/09/27 10:06:29;;;;;;;1.95;1.85;;;;;;;;;;5003165;28;60078;-72
2023/09/27 10:08:55;;;;;;;1.90;1.80;;;;;;;;;;5003823;28;58042;-71
2023/09/27 10:11:23;;;;;;;1.85;1.75;;;;;;;;;;5003976;28;57973;-71
2023/09/27 10:13:48;;;;;;;2.22;2.03;;;;;;;;;;5003901;28;58178;-71
2023/09/27 10:16:13;;;;;;;1.70;1.60;;;;;;;;;;5003381;28;59538;-71
2023/09/27 10:18:39;;;;;;;1.80;1.70;;;;;;;;;;5002008;28;58158;-70
2023/09/27 10:21:06;;;;;;;1.85;1.75;;;;;;;;;;5003913;28;57905;-72
2023/09/27 10:23:44;;;;;;;1.42;1.33;;;;;;;;;;5004035;28;59461;-71
2023/09/27 10:26:27;;;;;;;1.50;1.40;;;;;;;;;;5001850;28;57966;-72
2023/09/27 10:29:03;;;;;;;1.85;1.75;;;;;;;;;;5002576;28;58041;-71
2023/09/27 10:31:29;;;;;;;1.90;1.80;;;;;;;;;;5004613;28;58521;-71
2023/09/27 10:33:54;;;;;;;2.30;1.70;;;;;;;;;;5001570;28;59112;-71
2023/09/27 10:36:19;;;;;;;1.63;1.52;;;;;;;;;;5004637;28;58021;-71
2023/09/27 10:38:47;;;;;;;1.85;1.75;;;;;;;;;;5001900;28;59856;-71
2023/09/27 10:41:12;;;;;;;;;;;;;;;;;;5004264;28;57911;-71
2023/09/27 10:43:42;;;;;;;1.67;1.58;;;;;;;;;;5003625;28;59728;-71
2023/09/27 10:46:08;;;;;;;1.67;1.58;;;;;;;;;;5002643;28;58037;-71
2023/09/27 10:48:34;;;;;;;2.33;2.13;;;;;;;;;;5002520;28;57920;-71
2023/09/27 10:50:59;;;;;;;1.60;1.50;;;;;;;;;;5002628;28;57890;-71
2023/09/27 10:53:27;;;;;;;1.40;1.30;;;;;;;;;;5001865;28;58892;-73
2023/09/27 10:55:53;;;;;;;1.58;1.48;;;;;;;;;;5003599;28;58157;-71
2023/09/27 10:58:18;;;;;;;1.55;1.45;;;;;;;;;;5003511;28;58068;-72
2023/09/27 11:00:56;;;;;;;1.57;1.47;;;;;;;;;;5005200;28;57928;-71
2023/09/27 11:03:23;;;;;;;1.75;1.65;;;;;;;;;;5004655;28;58868;-72
2023/09/27 11:05:50;;;;;;;1.63;1.52;;;;;;;;;;5003009;28;59845;-72
2023/09/27 11:08:19;;;;;;;1.63;1.52;;;;;;;;;;5001805;28;57934;-71
2023/09/27 11:10:44;;;;;;;1.70;1.60;;;;;;;;;;5002527;28;63009;-72
2023/09/27 11:13:11;;;;;;;1.50;1.40;;;;;;;;;;5001499;28;58169;-72
2023/09/27 11:15:37;;;;;;;1.67;1.58;;;;;;;;;;5004422;28;57759;-71
2023/09/27 11:18:04;;;;;;;1.85;1.75;;;;;;;;;;5000921;28;58847;-71
2023/09/27 11:20:29;;;;;;;2.53;1.55;;;;;;;;;;5002232;28;58012;-71
2023/09/27 11:22:58;;;;;;;1.57;1.47;;;;;;;;;;5003441;28;58038;-71
2023/09/27 11:25:34;;;;;;;1.92;1.83;;;;;;;;;;5002375;28;59802;-73
2023/09/27 11:27:59;;;;;;;1.45;1.35;;;;;;;;;;5003173;28;57985;-71
2023/09/27 11:30:26;;;;;;;1.60;1.50;;;;;;;;;;4998655;28;58304;-72
2023/09/27 11:32:51;;;;;;;1.48;1.38;;;;;;;;;;4994332;28;58461;-72
2023/09/27 11:35:20;;;;;;;1.63;1.53;;;;;;;;;;5000990;28;58113;-72
2023/09/27 11:37:45;;;;;;;1.50;1.40;;;;;;;;;;5001987;28;59501;-71
2023/09/27 11:40:10;;;;;;;1.67;1.47;;;;;;;;;;5001590;28;57920;-71
2023/09/27 11:42:35;;;;;;;1.70;1.55;;;;;;;;;;5004754;28;58328;-71
2023/09/27 11:45:01;;;;;;;1.40;1.30;;;;;;;;;;5000727;28;58162;-71
2023/09/27 11:47:26;;;;;;;1.23;1.15;;;;;;;;;;5003388;28;58206;-72
2023/09/27 11:49:51;;;;;;;1.67;1.57;;;;;;;;;;5003626;28;58210;-72
2023/09/27 11:52:17;;;;;;;1.43;1.33;;;;;;;;;;5001162;28;58139;-72
2023/09/27 11:54:45;;;;;;;1.73;1.63;;;;;;;;;;5006063;28;57870;-71
2023/09/27 11:57:10;;;;;;;1.75;1.17;;;;;;;;;;5007343;28;59860;-71
2023/09/27 11:59:37;;;;;;;1.30;1.20;;;;;;;;;;5008357;28;58724;-71
2023/09/27 12:02:03;;;;;;;1.20;1.10;;;;;;;;;;5006845;28;59533;-71
2023/09/27 12:04:28;;;;;;;1.50;1.40;;;;;;;;;;5003764;28;58396;-71
2023/09/27 12:06:53;;;;;;;2.17;1.63;;;;;;;;;;5001877;28;57969;-71
2023/09/27 12:09:19;;;;;;;0.93;0.93;;;;;;;;;;5006526;28;58144;-71
2023/09/27 12:11:44;;;;;;;1.30;1.20;;;;;;;;;;5003858;28;60646;-71
2023/09/27 12:14:09;;;;;;;1.60;1.50;;;;;;;;;;5006756;28;58199;-72
2023/09/27 12:16:34;;;;;;;0.80;0.80;;;;;;;;;;5005537;28;58456;-73
2023/09/27 12:19:00;;;;;;;1.00;0.90;;;;;;;;;;5006461;28;58955;-72
2023/09/27 12:21:25;;;;;;;1.30;1.20;;;;;;;;;;5007202;28;57890;-73
2023/09/27 12:23:51;;;;;;;1.50;0.90;;;;;;;;;;5004820;28;59068;-72
2023/09/27 12:26:16;;;;;;;1.23;1.13;;;;;;;;;;5004354;28;57823;-71
2023/09/27 12:28:41;;;;;;;1.17;1.10;;;;;;;;;;5006797;28;58653;-71
2023/09/27 12:31:06;;;;;;;1.05;1.00;;;;;;;;;;5004905;28;57979;-74
2023/09/27 12:33:32;;;;;;;1.77;1.30;;;;;;;;;;5004471;28;58029;-74
2023/09/27 12:35:57;;;;;;;1.48;1.38;;;;;;;;;;5006065;28;58445;-76
2023/09/27 12:38:24;;;;;;;1.03;1.03;;;;;;;;;;5005441;28;58974;-75
2023/09/27 12:40:49;;;;;;;0.85;0.85;;;;;;;;;;5007774;28;57906;-75
2023/09/27 12:43:14;;;;;;;0.80;0.80;;;;;;;;;;5004273;28;59793;-74
2023/09/27 12:45:40;;;;;;;1.63;1.53;;;;;;;;;;5004885;28;58673;-75
2023/09/27 12:48:05;;;;;;;0.95;0.95;;;;;;;;;;5004538;28;59398;-74
2023/09/27 12:50:30;;;;;;;0.90;0.77;;;;;;;;;;5005002;28;59744;-74
2023/09/27 12:52:56;;;;;;;0.85;0.85;;;;;;;;;;5006709;28;57808;-75
2023/09/27 12:55:21;;;;;;;1.75;1.65;;;;;;;;;;5003436;28;60209;-75
2023/09/27 12:57:46;;;;;;;0.97;0.97;;;;;;;;;;5003791;28;59881;-74
2023/09/27 13:00:12;;;;;;;1.13;1.03;;;;;;;;;;5005930;28;58442;-74
2023/09/27 13:02:37;;;;;;;1.27;1.17;;;;;;;;;;5004934;28;60051;-75
2023/09/27 13:05:03;;;;;;;1.05;1.00;;;;;;;;;;5005229;28;57880;-74
2023/09/27 13:07:29;;;;;;;1.00;0.90;;;;;;;;;;5006939;28;57871;-74
2023/09/27 13:09:54;;;;;;;0.88;0.88;;;;;;;;;;5003447;28;58188;-74
2023/09/27 13:12:19;;;;;;;0.90;0.90;;;;;;;;;;5006094;28;58123;-74
2023/09/27 13:14:44;;;;;;;0.80;0.80;;;;;;;;;;5004848;28;58597;-74
2023/09/27 13:17:10;;;;;;;1.27;1.17;;;;;;;;;;5004811;28;58028;-75
2023/09/27 13:19:35;;;;;;;0.90;0.90;;;;;;;;;;5003357;28;58123;-75
2023/09/27 13:22:00;;;;;;;1.00;1.00;;;;;;;;;;5003521;28;59230;-74
2023/09/27 13:24:25;;;;;;;1.00;1.00;;;;;;;;;;5004239;28;58373;-74
2023/09/27 13:26:50;;;;;;;1.15;1.05;;;;;;;;;;5007730;28;58222;-74
2023/09/27 13:29:16;;;;;;;1.00;0.97;;;;;;;;;;5003055;28;59579;-74
2023/09/27 13:31:41;;;;;;;0.80;0.80;;;;;;;;;;5006277;28;57907;-74
2023/09/27 13:34:06;;;;;;;1.52;1.10;;;;;;;;;;5003503;28;58795;-74
2023/09/27 13:36:35;;;;;;;0.70;0.70;;;;;;;;;;5003633;28;58635;-74
2023/09/27 13:39:00;;;;;;;0.98;0.98;;;;;;;;;;5003576;28;57915;-74
2023/09/27 13:41:25;;;;;;;0.90;0.90;;;;;;;;;;5003395;28;58927;-74
2023/09/27 13:43:50;;;;;;;1.13;1.13;;;;;;;;;;5002534;28;58008;-74
2023/09/27 13:46:16;;;;;;;1.07;1.07;;;;;;;;;;5005016;28;57851;-74
2023/09/27 13:48:41;;;;;;;1.17;0.97;;;;;;;;;;5003801;28;58256;-73
2023/09/27 13:51:06;;;;;;;1.00;1.00;;;;;;;;;;5004251;28;57822;-72
2023/09/27 13:53:31;;;;;;;1.27;1.17;;;;;;;;;;5003086;28;59427;-72
2023/09/27 13:55:56;;;;;;;0.90;0.90;;;;;;;;;;5004242;28;60412;-72
2023/09/27 13:58:22;;;;;;;1.23;1.00;;;;;;;;;;5005611;28;58215;-73
2023/09/27 14:00:47;;;;;;;1.30;1.20;;;;;;;;;;5004744;28;57879;-72
2023/09/27 14:03:13;;;;;;;1.27;1.17;;;;;;;;;;5003170;28;58124;-72
2023/09/27 14:05:38;;;;;;;1.30;1.20;;;;;;;;;;5006198;28;58237;-72
2023/09/27 14:08:03;;;;;;;1.30;1.20;;;;;;;;;;5006391;28;58154;-72
2023/09/27 14:10:28;;;;;;;0.90;0.73;;;;;;;;;;5004508;28;58158;-71
2023/09/27 14:12:54;;;;;;;1.30;1.20;;;;;;;;;;5004721;28;58744;-73
2023/09/27 14:15:20;;;;;;;1.43;1.17;;;;;;;;;;5000706;28;59165;-72
2023/09/27 14:17:46;;;;;;;1.42;1.33;;;;;;;;;;5003126;28;58088;-75
2023/09/27 14:20:15;;;;;;;0.93;0.93;;;;;;;;;;5005648;28;58614;-76
2023/09/27 14:22:41;;;;;;;1.25;1.25;;;;;;;;;;5003557;28;62415;-74
2023/09/27 14:25:08;;;;;;;5.28;1.45;;;;;;;;;;5002459;28;57894;-73
2023/09/27 14:27:33;;;;;;;3.53;1.33;;;;;;;;;;5003771;28;57955;-77
2023/09/27 14:29:58;;;;;;;4.07;1.50;;;;;;;;;;5006244;28;60037;-75
2023/09/27 14:32:23;;;;;;;2.15;1.20;;;;;;;;;;5002551;28;59243;-72
2023/09/27 14:34:48;;;;;;;4.13;1.50;;;;;;;;;;5002672;28;58048;-75
2023/09/27 14:37:14;;;;;;;3.57;1.20;;;;;;;;;;5000888;28;58142;-74